Airfield :
LOGIN :

Register | Disclaimer

   EN    FR    IT 

 










Legend :    VFR   Marginal VFR   IFR   Intensive IFR   Very Intensive IFR
Visi :
Ceiling :
>= 8 km
>= 3000ft
5 to 8 km
1000 to 3000 ft
1500m to 5 km
500 to 1000 ft
800 to 1500m
200 to 500 ft
< 800m
< 200 ft
Symbols :   Thunderstorms  Fog  Heavy snow  Heavy precipitations  Wind > 20 kt
SIGMETs :     Misc.  Thunderstorms  Icing  Turbulence  Mountain Waves  Volcanic Ashes






- Airport Elevation : 90 ft
- IATA code : NTE


LFRS - Nantes

CURRENT METAR :
  • 191700Z AUTO 25010KT 9999 BKN019 BKN027 OVC044 11/08 Q1026 NOSIG

EXPIRED METARs :
  • 191630Z AUTO 25010KT 220V280 9999 SCT020 SCT028 OVC044 11/08 Q1026 NOSIG
  • 191600Z AUTO 25012KT 9999 BKN021 BKN028 BKN035 11/08 Q1027 NOSIG
  • 191530Z AUTO 25012KT 9999 BKN021 OVC034 12/08 Q1027 NOSIG
  • 191500Z AUTO 25015KT 9999 BKN021 OVC027 12/08 Q1027 NOSIG
  • 191430Z AUTO 25013KT 9999 BKN022 BKN031 OVC040 12/08 Q1027 NOSIG

TAF AMD TAF LFRS
Valid from the 19 at 12:00 until the 20 at 18:00 UTC


191212Z 1912/2018 27012KT 9999 BKN020 BKN045
TEMPO 1912/1915 4000 -RADZ BKN006 BKN012 BKN020
BECMG 1917/1919 21007KT
PROB40
TEMPO 1922/2009 4500 -RA BKN014 BKN040
BECMG 2010/2012 21015G25KT
TEMPO 2014/2017 24020G35KT 3000 RA BKN012 BKN040
FM201700 32012KT 9999 SCT030
ATIS : +33 2 40 05 12 74



MET'MAP, your aeronautical weather chart ! - Copyright ORBIFLY December 2007 - Disclaimer

ORBIFLY MET'MAP TEAM :

Programming & Development : Alexandra Zaïnal
Concept & original design : Baudouin d'Aumeries
Assistance for programming : Marc-Olivier Méhu
Technical & hardware support : Manuel Goepfert

Contact : metmap@orbifly.com




SOURCES & CREDITS :

   NOAA